Time;durP1;ratioP1;P1;durP2;ratioP2;P2;SDS_P1;SDS_P2;PMS_P1;PMS_P2;Temp;Humidity;BMP_temperature;BMP_pressure;BME280_temperature;BME280_humidity;BME280_pressure;Samples;Min_cycle;Max_cycle;Signal;HPM_P1;HPM_P2
2023/04/12 00:01:39;;;;;;;2.80;1.52;;;19.10;56.80;;;;;;5035601;28;20455;-65
2023/04/12 00:04:04;;;;;;;2.30;1.70;;;19.10;56.80;;;;;;5036395;28;20094;-65
2023/04/12 00:06:33;;;;;;;4.60;2.05;;;19.10;56.80;;;;;;5035895;28;20516;-60
2023/04/12 00:08:59;;;;;;;3.53;1.70;;;19.10;56.80;;;;;;5036235;28;20373;-65
2023/04/12 00:11:27;;;;;;;3.47;1.55;;;19.10;56.80;;;;;;5035050;28;20033;-65
2023/04/12 00:13:53;;;;;;;2.45;1.40;;;19.10;56.80;;;;;;5035669;28;20037;-65
2023/04/12 00:16:18;;;;;;;2.53;1.45;;;19.10;57.00;;;;;;5032735;28;20071;-65
2023/04/12 00:18:44;;;;;;;2.28;1.20;;;19.10;56.80;;;;;;5039658;28;20128;-65
2023/04/12 00:21:10;;;;;;;3.22;1.75;;;19.00;56.70;;;;;;5034417;28;20144;-63
2023/04/12 00:23:36;;;;;;;3.75;1.83;;;19.10;56.70;;;;;;5038098;28;20065;-65
2023/04/12 00:26:02;;;;;;;2.63;1.30;;;19.00;56.70;;;;;;5036252;28;20124;-65
2023/04/12 00:28:28;;;;;;;3.00;1.40;;;19.10;56.70;;;;;;5038058;28;20041;-66
2023/04/12 00:30:53;;;;;;;3.90;1.73;;;19.00;56.60;;;;;;5032214;28;20040;-60
2023/04/12 00:33:19;;;;;;;1.80;1.08;;;19.10;56.60;;;;;;5047961;28;20033;-64
2023/04/12 00:35:45;;;;;;;2.97;1.88;;;19.00;56.70;;;;;;5037021;28;20500;-65
2023/04/12 00:38:10;;;;;;;3.58;1.40;;;19.00;56.60;;;;;;5035633;28;20099;-64
2023/04/12 00:40:39;;;;;;;2.03;1.15;;;19.00;56.60;;;;;;5041281;28;20395;-64
2023/04/12 00:43:05;;;;;;;2.05;1.52;;;19.00;56.60;;;;;;5040329;28;20037;-65
2023/04/12 00:45:31;;;;;;;3.28;1.50;;;19.00;56.60;;;;;;5035423;28;20036;-64
2023/04/12 00:47:56;;;;;;;2.35;1.50;;;19.00;56.60;;;;;;5029655;28;20038;-64
2023/04/12 00:50:22;;;;;;;2.95;1.10;;;19.00;56.60;;;;;;5038535;28;20032;-65
2023/04/12 00:52:47;;;;;;;2.75;1.27;;;19.00;56.60;;;;;;5048372;28;20047;-66
2023/04/12 00:55:14;;;;;;;2.95;1.75;;;18.90;56.60;;;;;;5041764;28;20107;-65
2023/04/12 00:57:40;;;;;;;1.63;1.25;;;19.00;56.60;;;;;;5038805;28;20033;-58
2023/04/12 01:00:10;;;;;;;4.25;1.40;;;19.00;56.50;;;;;;5038765;28;20079;-66
2023/04/12 01:02:37;;;;;;;1.85;1.02;;;19.00;56.40;;;;;;5038524;28;20025;-66
2023/04/12 01:05:04;;;;;;;3.08;1.13;;;19.00;56.40;;;;;;5038942;28;20342;-65
2023/04/12 01:07:50;;;;;;;2.78;1.13;;;19.00;56.50;;;;;;5042549;28;20044;-64
2023/04/12 01:10:45;;;;;;;1.77;1.00;;;18.90;56.40;;;;;;5035650;28;20777;-66
2023/04/12 01:13:39;;;;;;;2.20;1.27;;;18.90;56.30;;;;;;5035706;28;20040;-65
2023/04/12 01:16:20;;;;;;;2.58;0.90;;;18.90;56.40;;;;;;5035179;28;20184;-64
2023/04/12 01:18:50;;;;;;;3.50;1.10;;;18.90;56.30;;;;;;5038438;28;20033;-65
2023/04/12 01:21:23;;;;;;;1.55;0.90;;;18.90;56.30;;;;;;5043667;28;20458;-65
2023/04/12 01:24:18;;;;;;;1.45;1.00;;;18.90;56.20;;;;;;5042490;28;20033;-65
2023/04/12 01:26:50;;;;;;;1.60;0.93;;;18.90;56.20;;;;;;5039535;28;20052;-65
2023/04/12 01:29:19;;;;;;;1.42;1.00;;;18.90;56.20;;;;;;5041922;28;20047;-66
2023/04/12 01:32:00;;;;;;;2.47;0.90;;;18.90;56.20;;;;;;5038864;28;20484;-65
2023/04/12 01:34:28;;;;;;;1.15;0.73;;;18.90;56.20;;;;;;5037741;28;20037;-65
2023/04/12 01:36:56;;;;;;;1.45;0.77;;;18.90;56.20;;;;;;5038448;28;20029;-64
2023/04/12 01:39:21;;;;;;;1.70;1.35;;;18.90;56.20;;;;;;5035652;28;20408;-65
2023/04/12 01:41:47;;;;;;;1.77;1.10;;;18.90;56.20;;;;;;5037129;28;20035;-66
2023/04/12 01:44:17;;;;;;;1.92;1.10;;;18.90;56.80;;;;;;5036583;28;20398;-65
2023/04/12 01:46:46;;;;;;;2.72;1.75;;;18.90;56.20;;;;;;5032268;28;20037;-65
2023/04/12 01:49:12;;;;;;;1.30;0.70;;;18.90;56.10;;;;;;5040386;28;20108;-64
2023/04/12 01:51:44;;;;;;;1.10;0.80;;;18.90;56.20;;;;;;5044135;28;20056;-65
2023/04/12 01:54:19;;;;;;;1.30;0.90;;;18.90;56.20;;;;;;5040487;28;20119;-64
2023/04/12 01:56:49;;;;;;;2.05;0.90;;;18.90;56.20;;;;;;5036678;28;20029;-64
2023/04/12 01:59:16;;;;;;;2.88;1.33;;;18.90;56.20;;;;;;5041573;28;20033;-65
2023/04/12 02:01:43;;;;;;;1.00;0.80;;;18.80;56.10;;;;;;5039497;28;20461;-62
2023/04/12 02:04:09;;;;;;;1.40;0.90;;;18.80;56.00;;;;;;5038127;28;20463;-65
2023/04/12 02:06:36;;;;;;;2.95;1.02;;;18.80;56.00;;;;;;5036967;28;20507;-65
2023/04/12 02:09:04;;;;;;;1.95;0.90;;;18.80;56.10;;;;;;5037214;28;20033;-65
2023/04/12 02:11:29;;;;;;;2.15;1.10;;;18.80;56.10;;;;;;5034412;28;20041;-67
2023/04/12 02:13:55;;;;;;;2.67;1.13;;;18.80;56.10;;;;;;5035171;28;20029;-65
2023/04/12 02:16:21;;;;;;;3.28;1.10;;;18.80;56.10;;;;;;5034184;28;20395;-67
2023/04/12 02:18:50;;;;;;;1.83;1.00;;;18.80;56.10;;;;;;5045344;28;20552;-65
2023/04/12 02:21:16;;;;;;;0.90;0.60;;;18.80;56.10;;;;;;5044190;28;20215;-65
2023/04/12 02:23:42;;;;;;;1.85;0.80;;;18.80;56.10;;;;;;5039043;28;20533;-66
2023/04/12 02:26:09;;;;;;;1.65;0.70;;;18.80;56.10;;;;;;5035700;28;20033;-66
2023/04/12 02:28:36;;;;;;;2.88;1.17;;;18.70;56.00;;;;;;5036374;28;20372;-65
2023/04/12 02:31:03;;;;;;;0.90;0.60;;;18.70;56.10;;;;;;5038034;28;20577;-65
2023/04/12 02:33:29;;;;;;;2.78;0.73;;;18.70;56.10;;;;;;5039857;28;20116;-66
2023/04/12 02:35:56;;;;;;;1.67;0.70;;;18.70;56.10;;;;;;5038113;28;20120;-66
2023/04/12 02:38:22;;;;;;;1.40;0.60;;;18.70;56.20;;;;;;5035085;28;20070;-62
2023/04/12 02:40:47;;;;;;;1.80;0.77;;;18.70;56.20;;;;;;5043777;28;20094;-60
2023/04/12 02:43:13;;;;;;;1.10;0.65;;;18.70;56.20;;;;;;5035611;28;20037;-66
2023/04/12 02:45:38;;;;;;;1.65;0.60;;;18.60;56.10;;;;;;5042420;28;20571;-58
2023/04/12 02:48:04;;;;;;;2.15;0.80;;;18.60;56.20;;;;;;5044092;28;20333;-65
2023/04/12 02:50:30;;;;;;;1.83;0.73;;;18.60;56.10;;;;;;5039875;28;20037;-65
2023/04/12 02:52:55;;;;;;;2.97;0.75;;;18.60;56.10;;;;;;5038025;28;20033;-66
2023/04/12 02:55:21;;;;;;;2.13;1.15;;;18.60;56.20;;;;;;5037075;28;20032;-65
2023/04/12 02:57:47;;;;;;;1.48;0.77;;;18.60;56.20;;;;;;5036250;28;20049;-65
2023/04/12 03:00:14;;;;;;;0.88;0.68;;;18.60;56.20;;;;;;5038564;28;20392;-65
2023/04/12 03:02:40;;;;;;;3.58;0.60;;;18.60;56.20;;;;;;5038027;28;20059;-64
2023/04/12 03:05:07;;;;;;;1.80;0.70;;;18.60;56.20;;;;;;5037605;28;20039;-61
2023/04/12 03:07:33;;;;;;;1.17;0.70;;;18.60;56.20;;;;;;5034815;28;20393;-65
2023/04/12 03:09:59;;;;;;;1.50;0.77;;;18.60;56.10;;;;;;5036165;28;20026;-66
2023/04/12 03:12:24;;;;;;;3.40;0.75;;;18.60;56.10;;;;;;5035168;28;20021;-65
2023/04/12 03:14:50;;;;;;;1.02;0.52;;;18.60;56.10;;;;;;5031099;28;20076;-67
2023/04/12 03:17:15;;;;;;;0.95;0.40;;;18.70;56.00;;;;;;5038830;28;20516;-65
2023/04/12 03:19:41;;;;;;;1.00;0.50;;;18.80;55.50;;;;;;5039819;28;20066;-65
2023/04/12 03:22:06;;;;;;;2.10;0.60;;;19.10;55.10;;;;;;5036690;28;20025;-65
2023/04/12 03:24:33;;;;;;;1.55;0.93;;;19.20;54.70;;;;;;5036792;28;20460;-61
2023/04/12 03:27:03;;;;;;;2.08;0.65;;;19.40;54.40;;;;;;5035364;28;20033;-65
2023/04/12 03:29:29;;;;;;;2.25;0.55;;;19.50;53.90;;;;;;5036029;28;20029;-65
2023/04/12 03:31:56;;;;;;;0.85;0.60;;;19.70;53.60;;;;;;5037593;28;20953;-65
2023/04/12 03:34:30;;;;;;;1.58;0.60;;;19.80;53.30;;;;;;5037338;28;20025;-65
2023/04/12 03:36:57;;;;;;;1.55;0.60;;;19.80;53.00;;;;;;5034296;28;20041;-66
2023/04/12 03:39:22;;;;;;;0.70;0.52;;;19.90;53.00;;;;;;5041502;28;20064;-65
2023/04/12 03:41:48;;;;;;;1.10;0.68;;;20.10;52.70;;;;;;5033571;28;20045;-65
2023/04/12 03:44:13;;;;;;;1.38;0.70;;;20.10;52.50;;;;;;5035192;28;20712;-65
2023/04/12 03:46:39;;;;;;;0.98;0.50;;;20.10;52.40;;;;;;5036870;28;21002;-65
2023/04/12 03:49:05;;;;;;;1.65;0.70;;;20.20;52.60;;;;;;5038795;28;20029;-65
2023/04/12 03:51:30;;;;;;;0.85;0.40;;;20.20;52.80;;;;;;5039580;28;20688;-64
2023/04/12 03:53:56;;;;;;;1.52;0.50;;;20.20;52.50;;;;;;5035771;28;20546;-65
2023/04/12 03:56:21;;;;;;;1.08;0.50;;;20.20;52.60;;;;;;5034094;28;20022;-66
2023/04/12 03:58:47;;;;;;;0.77;0.47;;;20.10;52.80;;;;;;5037900;28;20124;-65
2023/04/12 04:01:14;;;;;;;1.27;0.65;;;20.10;52.90;;;;;;5035882;28;20040;-65
2023/04/12 04:03:39;;;;;;;0.77;0.40;;;20.10;52.90;;;;;;5038558;28;20461;-66
2023/04/12 04:06:06;;;;;;;1.42;0.52;;;20.10;53.10;;;;;;5032770;28;20129;-66
2023/04/12 04:08:32;;;;;;;0.70;0.50;;;20.00;53.20;;;;;;5039031;28;20026;-65
2023/04/12 04:10:58;;;;;;;1.20;0.60;;;20.00;53.40;;;;;;5030866;28;20041;-66
2023/04/12 04:13:24;;;;;;;0.73;0.52;;;20.00;53.40;;;;;;5029514;28;20036;-65
2023/04/12 04:16:11;;;;;;;0.77;0.40;;;19.90;53.40;;;;;;5039833;28;20033;-66
2023/04/12 04:18:36;;;;;;;0.70;0.50;;;19.90;53.60;;;;;;5035114;28;20049;-66
2023/04/12 04:21:02;;;;;;;2.30;0.60;;;19.80;53.70;;;;;;5034274;28;20048;-66
2023/04/12 04:23:29;;;;;;;0.82;0.55;;;19.80;53.70;;;;;;5035498;28;20439;-64
2023/04/12 04:25:55;;;;;;;2.15;0.50;;;19.80;53.70;;;;;;5038723;28;20033;-65
2023/04/12 04:28:21;;;;;;;1.23;0.70;;;19.80;54.00;;;;;;5038614;28;20135;-66
2023/04/12 04:30:46;;;;;;;3.92;0.68;;;19.70;53.80;;;;;;5038555;28;20032;-65
2023/04/12 04:33:12;;;;;;;0.93;0.60;;;19.70;53.90;;;;;;5041516;28;20032;-61
2023/04/12 04:35:44;;;;;;;0.52;0.43;;;19.70;54.00;;;;;;5037738;28;20030;-65
2023/04/12 04:38:09;;;;;;;1.95;0.60;;;19.70;54.00;;;;;;5042317;28;20040;-64
2023/04/12 04:40:38;;;;;;;1.15;0.50;;;19.70;54.00;;;;;;5037920;28;20504;-65
2023/04/12 04:43:04;;;;;;;0.98;0.60;;;19.60;54.10;;;;;;5037941;28;20032;-65
2023/04/12 04:45:31;;;;;;;1.40;0.70;;;19.60;54.10;;;;;;5037421;28;20030;-65
2023/04/12 04:47:56;;;;;;;1.20;0.70;;;19.60;54.10;;;;;;5037311;28;20033;-65
2023/04/12 04:50:23;;;;;;;1.50;0.60;;;19.60;54.30;;;;;;5041322;28;20032;-65
2023/04/12 04:52:49;;;;;;;1.65;0.63;;;19.60;54.30;;;;;;5041475;28;20041;-65
2023/04/12 04:55:23;;;;;;;2.50;0.57;;;19.50;54.20;;;;;;5037711;28;20407;-65
2023/04/12 04:57:49;;;;;;;0.70;0.40;;;19.50;54.20;;;;;;5040812;28;20029;-66
2023/04/12 05:00:15;;;;;;;2.58;0.50;;;19.60;54.30;;;;;;5040971;28;20047;-65
2023/04/12 05:02:41;;;;;;;1.35;0.65;;;19.50;54.20;;;;;;5039291;28;20421;-65
2023/04/12 05:05:21;;;;;;;1.95;0.40;;;19.50;54.10;;;;;;5042882;28;20025;-66
2023/04/12 05:07:47;;;;;;;1.65;0.70;;;19.50;54.20;;;;;;5040914;28;20085;-67
2023/04/12 05:10:13;;;;;;;1.17;0.65;;;19.50;54.20;;;;;;5039219;28;20045;-65
2023/04/12 05:12:38;;;;;;;1.73;0.70;;;19.50;54.20;;;;;;5037814;28;20098;-68
2023/04/12 05:15:04;;;;;;;2.83;0.50;;;19.40;54.10;;;;;;5043456;28;20041;-66
2023/04/12 05:17:30;;;;;;;2.20;0.45;;;19.40;54.30;;;;;;5037161;28;20033;-62
2023/04/12 05:19:56;;;;;;;1.52;0.65;;;19.40;54.40;;;;;;5036926;28;20053;-65
2023/04/12 05:22:22;;;;;;;1.55;0.60;;;19.30;54.40;;;;;;5038472;28;20030;-65
2023/04/12 05:24:48;;;;;;;2.30;0.60;;;19.30;54.60;;;;;;5035366;28;20427;-64
2023/04/12 05:27:15;;;;;;;1.20;0.50;;;19.30;54.60;;;;;;5039004;28;20175;-64
2023/04/12 05:29:43;;;;;;;2.33;0.70;;;19.30;54.70;;;;;;5038724;28;20407;-62
2023/04/12 05:32:09;;;;;;;1.27;0.50;;;19.30;54.80;;;;;;5036122;28;20029;-61
2023/04/12 05:34:36;;;;;;;2.92;0.65;;;19.20;54.90;;;;;;5043754;28;20403;-61
2023/04/12 05:37:02;;;;;;;5.47;0.60;;;19.20;55.20;;;;;;5031458;28;20083;-62
2023/04/12 05:39:27;;;;;;;2.08;0.50;;;19.20;55.70;;;;;;5037065;28;20033;-63
2023/04/12 05:41:53;;;;;;;3.60;0.85;;;19.20;55.60;;;;;;5044662;28;20103;-55
2023/04/12 05:44:18;;;;;;;2.05;1.02;;;19.20;55.50;;;;;;5042359;28;20025;-63
2023/04/12 05:46:44;;;;;;;1.48;0.68;;;19.20;55.50;;;;;;5040793;28;20496;-61
2023/04/12 05:49:09;;;;;;;2.35;0.60;;;19.20;55.50;;;;;;5038267;28;20379;-57
2023/04/12 05:51:35;;;;;;;4.00;1.42;;;19.20;55.50;;;;;;5042325;28;20029;-63
2023/04/12 05:54:02;;;;;;;2.65;2.08;;;19.10;55.50;;;;;;5040719;28;20040;-66
2023/04/12 05:56:28;;;;;;;7.07;2.33;;;19.20;55.70;;;;;;5037584;28;20318;-62
2023/04/12 05:58:53;;;;;;;5.47;1.98;;;19.20;56.30;;;;;;5040695;28;20112;-64
2023/04/12 06:01:20;;;;;;;5.40;1.88;;;19.10;55.60;;;;;;5037696;28;20516;-63
2023/04/12 06:03:46;;;;;;;3.60;1.63;;;19.10;55.60;;;;;;5041131;28;20078;-63
2023/04/12 06:06:12;;;;;;;4.60;1.83;;;19.10;55.60;;;;;;5036329;28;20033;-63
2023/04/12 06:08:37;;;;;;;4.93;1.92;;;19.10;55.60;;;;;;5040738;28;20036;-64
2023/04/12 06:11:06;;;;;;;5.57;1.58;;;19.00;55.60;;;;;;5035100;28;20029;-57
2023/04/12 06:13:32;;;;;;;6.55;1.80;;;19.00;55.60;;;;;;5042161;28;20021;-54
2023/04/12 06:15:57;;;;;;;3.28;1.67;;;19.00;55.60;;;;;;5039915;28;20041;-55
2023/04/12 06:18:23;;;;;;;3.30;1.50;;;19.00;55.60;;;;;;5038873;28;20029;-64
2023/04/12 06:20:48;;;;;;;3.17;1.60;;;19.00;55.70;;;;;;5038941;28;20551;-58
2023/04/12 06:23:14;;;;;;;7.07;1.42;;;19.00;55.70;;;;;;5033811;28;20044;-63
2023/04/12 06:25:40;;;;;;;4.35;1.60;;;19.00;55.80;;;;;;5039572;28;20091;-65
2023/04/12 06:28:05;;;;;;;3.55;1.65;;;18.90;55.70;;;;;;5040933;28;20341;-58
2023/04/12 06:30:31;;;;;;;3.95;1.33;;;18.90;55.70;;;;;;5036546;28;20040;-62
2023/04/12 06:32:56;;;;;;;5.47;1.55;;;18.90;55.80;;;;;;5038519;28;20052;-62
2023/04/12 06:35:22;;;;;;;3.00;1.67;;;18.90;55.80;;;;;;5036981;28;20353;-62
2023/04/12 06:37:48;;;;;;;5.07;1.83;;;18.90;55.80;;;;;;5038106;28;20345;-62
2023/04/12 06:40:13;;;;;;;6.30;2.50;;;18.90;56.20;;;;;;5039530;28;20586;-63
2023/04/12 06:42:39;;;;;;;4.78;1.95;;;18.90;56.80;;;;;;5041240;28;20033;-63
2023/04/12 06:45:05;;;;;;;3.88;2.05;;;18.90;56.70;;;;;;5040715;28;20029;-63
2023/04/12 06:47:31;;;;;;;4.40;1.88;;;18.80;56.60;;;;;;5039181;28;20029;-63
2023/04/12 06:49:57;;;;;;;8.70;3.42;;;18.80;56.40;;;;;;5033516;28;20036;-62
2023/04/12 06:52:26;;;;;;;19.67;8.20;;;18.80;56.50;;;;;;5034870;28;20105;-64
2023/04/12 06:54:52;;;;;;;32.17;12.40;;;18.80;57.60;;;;;;5039903;28;20554;-62
2023/04/12 06:57:17;;;;;;;28.23;12.85;;;18.80;58.00;;;;;;5039751;28;20059;-59
2023/04/12 06:59:43;;;;;;;28.02;13.20;;;18.90;58.50;;;;;;5038319;28;20507;-59
2023/04/12 07:02:08;;;;;;;30.90;13.45;;;18.90;59.30;;;;;;5040474;28;20037;-60
2023/04/12 07:04:34;;;;;;;39.65;14.05;;;18.90;58.90;;;;;;5040859;28;20030;-57
2023/04/12 07:06:59;;;;;;;27.30;12.95;;;18.90;58.90;;;;;;5039304;28;20021;-64
2023/04/12 07:09:25;;;;;;;30.23;12.52;;;18.90;59.10;;;;;;5031679;28;20401;-62
2023/04/12 07:11:50;;;;;;;30.95;11.98;;;18.90;58.90;;;;;;5046453;28;20033;-63
2023/04/12 07:14:16;;;;;;;27.23;11.32;;;18.90;59.00;;;;;;5038093;28;20140;-63
2023/04/12 07:16:42;;;;;;;33.03;11.90;;;18.90;59.00;;;;;;5039636;28;20087;-55
2023/04/12 07:19:08;;;;;;;27.80;11.50;;;18.90;58.60;;;;;;5036091;28;20226;-63
2023/04/12 07:21:33;;;;;;;28.85;10.75;;;18.90;58.60;;;;;;5037776;28;20037;-64
2023/04/12 07:23:59;;;;;;;25.10;10.00;;;18.90;58.60;;;;;;5036082;28;20040;-64
2023/04/12 07:26:25;;;;;;;21.70;9.98;;;18.90;58.50;;;;;;5036852;28;20736;-62
2023/04/12 07:28:50;;;;;;;22.48;10.02;;;18.90;58.40;;;;;;5037031;28;20506;-64
2023/04/12 07:31:16;;;;;;;20.70;9.00;;;19.00;58.30;;;;;;5034941;28;20063;-63
2023/04/12 07:33:42;;;;;;;17.48;9.38;;;19.20;57.70;;;;;;5032028;28;20037;-63
2023/04/12 07:36:08;;;;;;;21.65;9.45;;;19.40;57.20;;;;;;5037968;28;20071;-64
2023/04/12 07:38:33;;;;;;;22.10;8.57;;;19.60;56.60;;;;;;5035556;28;20121;-64
2023/04/12 07:40:59;;;;;;;18.75;8.27;;;19.70;56.10;;;;;;5039144;28;20037;-64
2023/04/12 07:43:25;;;;;;;16.83;7.97;;;19.80;55.80;;;;;;5033724;28;20064;-63
2023/04/12 07:45:50;;;;;;;22.35;8.52;;;19.90;55.60;;;;;;5030900;28;20120;-64
2023/04/12 07:48:16;;;;;;;22.00;8.50;;;20.10;55.30;;;;;;5037879;28;20041;-63
2023/04/12 07:50:42;;;;;;;19.15;7.63;;;20.30;55.20;;;;;;5037162;28;20248;-64
2023/04/12 07:53:27;;;;;;;18.85;7.53;;;20.40;54.80;;;;;;5036662;28;20087;-64
2023/04/12 07:55:54;;;;;;;17.73;7.53;;;20.50;54.70;;;;;;5038151;28;20032;-64
2023/04/12 07:58:21;;;;;;;15.65;7.30;;;20.70;54.50;;;;;;5035319;28;20555;-63
2023/04/12 08:00:47;;;;;;;15.55;6.40;;;20.70;54.40;;;;;;5039271;28;20044;-64
2023/04/12 08:03:14;;;;;;;13.85;6.15;;;20.80;54.50;;;;;;5038404;28;20029;-64
2023/04/12 08:05:40;;;;;;;15.95;7.13;;;20.80;54.40;;;;;;5040624;28;20033;-63
2023/04/12 08:08:08;;;;;;;14.98;6.03;;;20.90;54.50;;;;;;5035230;28;20132;-64
2023/04/12 08:10:35;;;;;;;18.25;7.00;;;20.90;54.50;;;;;;5042626;28;20037;-61
2023/04/12 08:13:01;;;;;;;13.82;5.80;;;20.90;54.60;;;;;;5036781;28;20087;-64
2023/04/12 08:15:27;;;;;;;14.27;6.68;;;20.80;54.60;;;;;;5035193;28;20079;-64
2023/04/12 08:17:52;;;;;;;12.13;5.55;;;20.80;54.70;;;;;;5033627;28;20034;-64
2023/04/12 08:20:18;;;;;;;12.90;5.97;;;20.80;54.80;;;;;;5035502;28;21170;-63
2023/04/12 08:22:45;;;;;;;13.65;6.20;;;20.80;54.80;;;;;;5035377;28;20041;-64
2023/04/12 08:25:11;;;;;;;12.10;5.22;;;20.80;54.80;;;;;;5041920;28;20036;-63
2023/04/12 08:27:40;;;;;;;10.40;5.20;;;20.70;55.00;;;;;;5033365;28;20039;-64
2023/04/12 08:30:07;;;;;;;11.15;5.75;;;20.70;55.10;;;;;;5034328;28;20068;-63
2023/04/12 08:32:33;;;;;;;12.82;5.53;;;20.70;55.20;;;;;;5034433;28;20037;-64
2023/04/12 08:34:59;;;;;;;11.25;4.47;;;20.60;55.80;;;;;;5028737;28;20033;-65
2023/04/12 08:37:24;;;;;;;10.13;4.93;;;20.60;55.30;;;;;;5021407;28;20557;-63
2023/04/12 08:39:50;;;;;;;7.72;4.22;;;20.60;55.30;;;;;;5021532;28;20041;-64
2023/04/12 08:42:16;;;;;;;12.48;4.18;;;20.60;55.30;;;;;;5025853;28;20029;-64
2023/04/12 08:44:42;;;;;;;12.60;4.38;;;20.60;55.40;;;;;;5039262;28;20041;-63
2023/04/12 08:47:09;;;;;;;9.85;3.70;;;20.50;55.50;;;;;;5034722;28;20132;-63
2023/04/12 08:49:35;;;;;;;8.65;3.83;;;20.50;55.50;;;;;;5036204;28;20029;-63
2023/04/12 08:52:09;;;;;;;7.68;3.38;;;20.50;56.20;;;;;;5038253;28;20159;-64
2023/04/12 08:54:35;;;;;;;9.13;3.88;;;20.50;55.70;;;;;;5038114;28;20546;-63
2023/04/12 08:57:03;;;;;;;8.80;4.10;;;20.50;55.70;;;;;;5033200;28;20508;-64
2023/04/12 08:59:31;;;;;;;5.97;3.40;;;20.40;55.80;;;;;;5033948;28;20480;-63
2023/04/12 09:01:58;;;;;;;8.60;3.63;;;20.40;55.80;;;;;;5033084;28;20034;-63
2023/04/12 09:04:25;;;;;;;8.25;4.05;;;20.40;55.80;;;;;;5038327;28;20505;-63
2023/04/12 09:06:51;;;;;;;6.57;2.95;;;20.30;55.80;;;;;;5041058;28;20057;-65
2023/04/12 09:09:16;;;;;;;10.20;4.28;;;20.30;55.90;;;;;;5042196;28;20025;-64
2023/04/12 09:11:42;;;;;;;6.68;2.97;;;20.30;55.80;;;;;;5042780;28;20084;-64
2023/04/12 09:14:24;;;;;;;6.82;3.33;;;20.30;55.80;;;;;;5038256;28;20037;-63
2023/04/12 09:16:50;;;;;;;7.68;3.50;;;20.20;55.70;;;;;;5036353;28;20037;-62
2023/04/12 09:19:29;;;;;;;5.50;2.75;;;20.20;55.90;;;;;;5035032;28;20107;-56
2023/04/12 09:21:55;;;;;;;4.82;2.35;;;20.20;55.70;;;;;;5038493;28;20040;-64
2023/04/12 09:24:24;;;;;;;5.85;3.08;;;20.10;55.90;;;;;;5036391;28;20115;-62
2023/04/12 09:27:03;;;;;;;6.32;2.35;;;20.10;56.00;;;;;;5040707;28;20036;-63
2023/04/12 09:29:30;;;;;;;4.40;2.53;;;20.10;56.10;;;;;;5039855;28;20027;-65
2023/04/12 09:32:05;;;;;;;5.85;2.47;;;20.10;56.10;;;;;;5038282;28;20036;-64
2023/04/12 09:34:34;;;;;;;6.95;3.47;;;20.10;56.10;;;;;;5032637;28;20441;-61
2023/04/12 09:37:12;;;;;;;6.32;3.03;;;20.20;56.20;;;;;;5040880;28;20025;-64
2023/04/12 09:39:37;;;;;;;8.98;2.45;;;20.10;56.20;;;;;;5039158;28;20026;-64
2023/04/12 09:42:08;;;;;;;7.55;2.40;;;20.20;56.20;;;;;;5036692;28;20021;-64
2023/04/12 09:44:34;;;;;;;7.82;2.40;;;20.20;56.20;;;;;;5039436;28;20508;-65
2023/04/12 09:47:01;;;;;;;4.57;2.08;;;20.20;56.20;;;;;;5037741;28;20125;-64
2023/04/12 09:49:38;;;;;;;6.68;2.72;;;20.20;56.20;;;;;;5034669;28;20030;-64
2023/04/12 09:52:09;;;;;;;5.75;2.17;;;20.20;56.20;;;;;;5031756;28;20029;-64
2023/04/12 09:54:42;;;;;;;5.82;2.42;;;20.10;56.20;;;;;;5038434;28;20032;-64
2023/04/12 09:57:08;;;;;;;6.00;2.35;;;20.10;56.20;;;;;;5035294;28;20021;-63
2023/04/12 09:59:38;;;;;;;5.68;2.30;;;20.10;56.20;;;;;;5040919;28;20055;-63
2023/04/12 10:02:14;;;;;;;8.57;2.50;;;20.10;56.20;;;;;;5033649;28;20281;-64
2023/04/12 10:04:41;;;;;;;8.38;2.45;;;20.10;56.20;;;;;;5042822;28;20119;-61
2023/04/12 10:07:06;;;;;;;4.82;2.45;;;20.10;56.20;;;;;;5038896;28;20437;-64
2023/04/12 10:09:33;;;;;;;2.65;1.73;;;20.10;56.10;;;;;;5037249;28;20113;-64
2023/04/12 10:12:02;;;;;;;5.45;2.17;;;20.00;56.20;;;;;;5034648;28;20562;-64
2023/04/12 10:14:28;;;;;;;6.30;2.22;;;20.00;56.20;;;;;;5040507;28;20028;-64
2023/04/12 10:16:56;;;;;;;4.20;1.90;;;20.00;56.10;;;;;;5031940;28;20044;-64
2023/04/12 10:19:24;;;;;;;6.18;2.47;;;19.90;56.00;;;;;;5038887;28;20036;-64
2023/04/12 10:21:50;;;;;;;4.55;1.85;;;20.00;56.70;;;;;;5037245;28;20037;-64
2023/04/12 10:24:16;;;;;;;2.83;1.67;;;19.90;56.10;;;;;;5037182;28;20037;-63
2023/04/12 10:26:43;;;;;;;4.90;2.00;;;19.90;56.10;;;;;;5039112;28;20115;-64
2023/04/12 10:29:28;;;;;;;6.30;1.98;;;19.80;56.00;;;;;;5038770;28;20315;-59
2023/04/12 10:32:17;;;;;;;2.83;1.60;;;19.80;56.10;;;;;;5032288;28;20536;-64
2023/04/12 10:34:43;;;;;;;2.38;1.55;;;19.80;56.10;;;;;;5040686;28;20072;-64
2023/04/12 10:37:09;;;;;;;4.57;1.98;;;19.80;56.10;;;;;;5041234;28;20060;-63
2023/04/12 10:39:37;;;;;;;2.83;1.55;;;19.80;56.10;;;;;;5037319;28;20033;-63
2023/04/12 10:42:21;;;;;;;6.20;1.95;;;19.80;56.10;;;;;;5039092;28;20520;-63
2023/04/12 10:44:47;;;;;;;3.95;1.80;;;19.70;56.00;;;;;;5036323;28;20050;-60
2023/04/12 10:47:13;;;;;;;4.05;1.80;;;19.70;56.70;;;;;;5038224;28;20032;-59
2023/04/12 10:49:39;;;;;;;3.40;1.52;;;19.70;56.10;;;;;;5036982;28;20025;-59
2023/04/12 10:52:07;;;;;;;3.55;1.85;;;19.70;56.00;;;;;;5038489;28;20055;-64
2023/04/12 10:54:34;;;;;;;5.55;1.98;;;19.70;56.10;;;;;;5039942;28;20125;-64
2023/04/12 10:57:01;;;;;;;6.25;2.58;;;19.70;56.20;;;;;;5041374;28;20037;-62
2023/04/12 10:59:49;;;;;;;3.17;1.40;;;19.70;56.20;;;;;;5037559;28;20435;-65
2023/04/12 11:02:15;;;;;;;5.25;1.63;;;19.60;56.10;;;;;;5037909;28;20029;-60
2023/04/12 11:05:09;;;;;;;3.08;1.48;;;19.60;56.20;;;;;;5038894;28;20033;-65
2023/04/12 11:07:43;;;;;;;5.10;1.35;;;19.60;56.30;;;;;;5037762;28;20506;-64
2023/04/12 11:10:14;;;;;;;3.92;2.08;;;19.60;56.20;;;;;;5036590;28;20488;-64
2023/04/12 11:12:40;;;;;;;2.35;1.35;;;19.60;56.30;;;;;;5039780;28;20037;-65
2023/04/12 11:15:06;;;;;;;3.72;1.73;;;19.50;56.30;;;;;;5035496;28;20056;-65
2023/04/12 11:17:32;;;;;;;2.20;1.50;;;19.50;56.30;;;;;;5035223;28;20035;-60
2023/04/12 11:19:59;;;;;;;3.38;1.17;;;19.50;56.40;;;;;;5038337;28;20037;-63
2023/04/12 11:22:30;;;;;;;2.15;1.45;;;19.50;56.40;;;;;;5039671;28;20033;-63
2023/04/12 11:24:58;;;;;;;2.78;1.52;;;19.50;56.40;;;;;;5040592;28;20408;-58
2023/04/12 11:27:26;;;;;;;3.40;1.52;;;19.50;56.40;;;;;;5032524;28;20356;-63
2023/04/12 11:29:54;;;;;;;3.05;1.17;;;19.50;56.50;;;;;;5035375;28;20148;-61
2023/04/12 11:32:22;;;;;;;3.20;1.40;;;19.50;56.50;;;;;;5043196;28;20043;-63
2023/04/12 11:34:47;;;;;;;2.50;1.58;;;19.50;56.50;;;;;;5036844;28;20045;-62
2023/04/12 11:37:13;;;;;;;3.38;1.50;;;19.40;56.50;;;;;;5035819;28;20404;-63
2023/04/12 11:39:42;;;;;;;3.45;1.33;;;19.40;56.50;;;;;;5036781;28;20029;-63
2023/04/12 11:42:14;;;;;;;2.42;1.30;;;19.40;56.60;;;;;;5035968;28;20021;-62
2023/04/12 11:44:40;;;;;;;3.80;1.75;;;19.40;56.60;;;;;;5034287;28;20491;-63
2023/04/12 11:47:12;;;;;;;4.45;1.45;;;19.40;56.60;;;;;;5033743;28;20042;-57
2023/04/12 11:49:43;;;;;;;2.95;1.05;;;19.40;56.60;;;;;;5040477;28;20039;-63
2023/04/12 11:52:08;;;;;;;3.38;1.42;;;19.40;56.70;;;;;;5036536;28;20030;-63
2023/04/12 11:54:34;;;;;;;3.53;1.67;;;19.40;56.70;;;;;;5037335;28;20078;-60
2023/04/12 11:56:59;;;;;;;2.42;1.30;;;19.40;56.80;;;;;;5036424;28;20095;-62
2023/04/12 11:59:32;;;;;;;2.20;1.30;;;19.30;56.70;;;;;;5036679;28;20122;-62
2023/04/12 12:02:01;;;;;;;3.28;1.00;;;19.40;56.80;;;;;;5038092;28;20025;-62
2023/04/12 12:04:28;;;;;;;2.78;1.63;;;19.40;56.80;;;;;;5035741;28;20045;-62
2023/04/12 12:06:56;;;;;;;3.55;0.82;;;19.40;56.80;;;;;;5035604;28;20048;-57
2023/04/12 12:09:22;;;;;;;2.85;1.40;;;19.30;56.80;;;;;;5034514;28;20551;-60
2023/04/12 12:11:48;;;;;;;2.00;0.95;;;19.30;56.90;;;;;;5037555;28;20124;-62
2023/04/12 12:14:18;;;;;;;1.92;0.98;;;19.30;56.90;;;;;;5031957;28;20562;-62
2023/04/12 12:16:57;;;;;;;1.63;1.00;;;19.30;56.90;;;;;;5036720;28;20112;-62
2023/04/12 12:19:43;;;;;;;3.40;1.23;;;19.30;56.90;;;;;;5032566;28;20052;-62
2023/04/12 12:22:11;;;;;;;3.95;1.00;;;19.30;57.00;;;;;;5034902;28;20612;-62
2023/04/12 12:24:48;;;;;;;3.60;1.15;;;19.30;57.00;;;;;;5037379;28;20030;-58
2023/04/12 12:27:28;;;;;;;3.00;1.05;;;19.20;57.00;;;;;;5030160;28;20034;-56
2023/04/12 12:29:54;;;;;;;2.58;1.10;;;19.20;57.00;;;;;;5040313;28;20044;-62
2023/04/12 12:32:22;;;;;;;1.65;0.90;;;19.20;57.10;;;;;;5039204;28;20037;-62
2023/04/12 12:34:52;;;;;;;1.00;0.80;;;19.20;57.00;;;;;;5035998;28;20033;-57
2023/04/12 12:37:25;;;;;;;2.63;0.95;;;19.20;57.00;;;;;;5034954;28;20025;-63
2023/04/12 12:40:24;;;;;;;2.90;1.02;;;19.20;57.00;;;;;;5035682;28;20033;-62
2023/04/12 12:42:53;;;;;;;2.85;0.80;;;19.20;57.10;;;;;;5033486;28;20154;-61
2023/04/12 12:45:20;;;;;;;2.85;1.13;;;19.20;57.10;;;;;;5036083;28;20515;-59
2023/04/12 12:47:57;;;;;;;1.85;1.00;;;19.10;57.70;;;;;;5038983;28;20040;-56
2023/04/12 12:50:28;;;;;;;1.92;1.05;;;19.20;57.20;;;;;;5037162;28;20462;-61